PWSweather.com
Personal Weather Stations
Station Observations
270882
Flassian, LimouxFR 11300

FlassianLimouxFR 11300

Lat: 43.071798, Lon: 2.217292

Elevation: 165

Station Type: Oregon WMR 200

http://www.meteolimoux.fr

High Low Average
Temperature 57.2°F14.0°F 48.0°F8.9°F 52.9°F11.6°F
Dew Point 47.7°F8.7°F 40.5°F4.7°F 43.0°F6.1°F
Winds 8.5 mph WSW13.7 mph WSW Calm Calm 3.6 mph 5.8 mph
Wind Gusts 18.1 mph29.1 mph -- 7.7 mph12.4 mph
Humidity 79% 64% 69%
Pressure 30.37 in1028.40 in 30.31 in1026.40 in -
Precipitation 0.00 in0.00 in - -
Hour Temp Dew Point Humidity Winds Wind Gusts Pressure Precip Precip Rate Daily Precip Total
12:02 AM 55.9°F13.3°C 43.9°F6.6°C 64% 8.1 mph WSW13.0 kmh WSW 18.1 mph29.1 kmh 30.34 in1027.4 mb - 0.00 in0.0 mm 0.00 in0.0 mm
12:07 AM 55.9°F13.3°C 43.9°F6.6°C 64% 8.1 mph W13.0 kmh W 14.1 mph22.7 kmh 30.34 in1027.4 mb - 0.00 in0.0 mm 0.00 in0.0 mm
12:12 AM 55.9°F13.3°C 43.9°F6.6°C 64% 8.3 mph WNW13.4 kmh WNW 15.4 mph24.8 kmh 30.34 in1027.4 mb - 0.00 in0.0 mm 0.00 in0.0 mm
12:17 AM 55.8°F13.2°C 43.7°F6.5°C 64% 6.9 mph W11.1 kmh W 12.1 mph19.5 kmh 30.34 in1027.4 mb - 0.00 in0.0 mm 0.00 in0.0 mm
12:22 AM 55.8°F13.2°C 43.7°F6.5°C 64% 6.5 mph SW10.5 kmh SW 13.2 mph21.2 kmh 30.34 in1027.4 mb - 0.00 in0.0 mm 0.00 in0.0 mm
12:27 AM 55.8°F13.2°C 43.7°F6.5°C 64% 8.1 mph W13.0 kmh W 17.2 mph27.7 kmh 30.34 in1027.4 mb - 0.00 in0.0 mm 0.00 in0.0 mm
12:32 AM 55.8°F13.2°C 44.2°F6.8°C 65% 6.9 mph WNW11.1 kmh WNW 14.8 mph23.8 kmh 30.34 in1027.4 mb - 0.00 in0.0 mm 0.00 in0.0 mm
12:37 AM 55.6°F13.1°C 44.1°F6.7°C 65% 6.5 mph WSW10.5 kmh WSW 14.1 mph22.7 kmh 30.31 in1026.4 mb - 0.00 in0.0 mm 0.00 in0.0 mm
12:42 AM 55.6°F13.1°C 44.1°F6.7°C 65% 6.5 mph WSW10.5 kmh WSW 11.0 mph17.7 kmh 30.31 in1026.4 mb - 0.00 in0.0 mm 0.00 in0.0 mm
12:47 AM 55.6°F13.1°C 44.1°F6.7°C 65% 5.1 mph W8.2 kmh W 13.0 mph20.9 kmh 30.31 in1026.4 mb - 0.00 in0.0 mm 0.00 in0.0 mm
12:52 AM 55.4°F13.0°C 43.9°F6.6°C 65% 5.4 mph W8.7 kmh W 15.0 mph24.1 kmh 30.34 in1027.4 mb - 0.00 in0.0 mm 0.00 in0.0 mm
12:57 AM 55.4°F13.0°C 43.9°F6.6°C 65% 7.8 mph SW12.6 kmh SW 13.9 mph22.4 kmh 30.34 in1027.4 mb - 0.00 in0.0 mm 0.00 in0.0 mm
01:02 AM 55.4°F13.0°C 43.9°F6.6°C 65% 8.1 mph WNW13.0 kmh WNW 15.7 mph25.3 kmh 30.34 in1027.4 mb - 0.00 in0.0 mm 0.00 in0.0 mm
01:07 AM 55.4°F13.0°C 43.9°F6.6°C 65% 7.8 mph WNW12.6 kmh WNW 14.3 mph23.0 kmh 30.37 in1028.4 mb - 0.00 in0.0 mm 0.00 in0.0 mm
01:12 AM 55.4°F13.0°C 43.9°F6.6°C 65% 6.5 mph W10.5 kmh W 16.6 mph26.7 kmh 30.37 in1028.4 mb - 0.00 in0.0 mm 0.00 in0.0 mm
01:17 AM 55.4°F13.0°C 43.9°F6.6°C 65% 8.1 mph WSW13.0 kmh WSW 16.8 mph27.0 kmh 30.37 in1028.4 mb - 0.00 in0.0 mm 0.00 in0.0 mm
01:22 AM 55.4°F13.0°C 43.9°F6.6°C 65% 8.1 mph W13.0 kmh W 16.1 mph25.9 kmh 30.34 in1027.4 mb - 0.00 in0.0 mm 0.00 in0.0 mm
01:27 AM 55.4°F13.0°C 43.9°F6.6°C 65% 8.5 mph WSW13.7 kmh WSW 15.2 mph24.5 kmh 30.34 in1027.4 mb - 0.00 in0.0 mm 0.00 in0.0 mm
01:32 AM 55.2°F12.9°C 43.7°F6.5°C 65% 6.9 mph W11.1 kmh W 13.9 mph22.4 kmh 30.34 in1027.4 mb - 0.00 in0.0 mm 0.00 in0.0 mm
01:37 AM 55.2°F12.9°C 43.7°F6.5°C 65% 5.6 mph WNW9.0 kmh WNW 11.4 mph18.3 kmh 30.34 in1027.4 mb - 0.00 in0.0 mm 0.00 in0.0 mm
01:42 AM 55.2°F12.9°C 43.7°F6.5°C 65% 5.8 mph WSW9.3 kmh WSW 11.6 mph18.7 kmh 30.34 in1027.4 mb - 0.00 in0.0 mm 0.00 in0.0 mm
01:47 AM 55.0°F12.8°C 43.5°F6.4°C 65% 8.1 mph W13.0 kmh W 14.1 mph22.7 kmh 30.34 in1027.4 mb - 0.00 in0.0 mm 0.00 in0.0 mm
01:52 AM 55.0°F12.8°C 43.5°F6.4°C 65% 6.9 mph WSW11.1 kmh WSW 14.8 mph23.8 kmh 30.34 in1027.4 mb - 0.00 in0.0 mm 0.00 in0.0 mm
01:57 AM 54.9°F12.7°C 43.3°F6.3°C 65% 6.7 mph WSW10.8 kmh WSW 12.3 mph19.8 kmh 30.34 in1027.4 mb - 0.00 in0.0 mm 0.00 in0.0 mm
02:02 AM 54.9°F12.7°C 43.3°F6.3°C 65% 7.8 mph W12.6 kmh W 14.5 mph23.3 kmh 30.34 in1027.4 mb - 0.00 in0.0 mm 0.00 in0.0 mm
02:07 AM 54.9°F12.7°C 43.3°F6.3°C 65% 7.6 mph WNW12.2 kmh WNW 14.1 mph22.7 kmh 30.34 in1027.4 mb - 0.00 in0.0 mm 0.00 in0.0 mm
02:12 AM 54.7°F12.6°C 43.5°F6.4°C 66% 6.7 mph W10.8 kmh W 13.0 mph20.9 kmh 30.34 in1027.4 mb - 0.00 in0.0 mm 0.00 in0.0 mm
02:17 AM 54.5°F12.5°C 43.3°F6.3°C 66% 5.1 mph NW8.2 kmh NW 10.3 mph16.6 kmh 30.34 in1027.4 mb - 0.00 in0.0 mm 0.00 in0.0 mm
02:22 AM 54.5°F12.5°C 43.3°F6.3°C 66% 6.7 mph WSW10.8 kmh WSW 12.5 mph20.1 kmh 30.34 in1027.4 mb - 0.00 in0.0 mm 0.00 in0.0 mm
02:27 AM 54.3°F12.4°C 43.2°F6.2°C 66% 5.4 mph SW8.7 kmh SW 11.2 mph18.0 kmh 30.34 in1027.4 mb - 0.00 in0.0 mm 0.00 in0.0 mm
02:32 AM 54.3°F12.4°C 43.2°F6.2°C 66% 5.8 mph W9.3 kmh W 9.8 mph15.8 kmh 30.34 in1027.4 mb - 0.00 in0.0 mm 0.00 in0.0 mm
02:37 AM 54.1°F12.3°C 43.0°F6.1°C 66% 6.3 mph WSW10.1 kmh WSW 12.5 mph20.1 kmh 30.34 in1027.4 mb - 0.00 in0.0 mm 0.00 in0.0 mm
02:42 AM 54.1°F12.3°C 43.0°F6.1°C 66% 6.3 mph WSW10.1 kmh WSW 13.9 mph22.4 kmh 30.34 in1027.4 mb - 0.00 in0.0 mm 0.00 in0.0 mm
02:47 AM 54.1°F12.3°C 43.0°F6.1°C 66% 4.9 mph WSW7.9 kmh WSW 13.6 mph21.9 kmh 30.34 in1027.4 mb - 0.00 in0.0 mm 0.00 in0.0 mm
02:52 AM 54.3°F12.4°C 43.2°F6.2°C 66% 6.0 mph W9.7 kmh W 11.4 mph18.3 kmh 30.37 in1028.4 mb - 0.00 in0.0 mm 0.00 in0.0 mm
02:57 AM 54.3°F12.4°C 43.2°F6.2°C 66% 6.3 mph W10.1 kmh W 13.2 mph21.2 kmh 30.37 in1028.4 mb - 0.00 in0.0 mm 0.00 in0.0 mm
03:02 AM 54.3°F12.4°C 43.2°F6.2°C 66% 6.5 mph W10.5 kmh W 10.7 mph17.2 kmh 30.37 in1028.4 mb - 0.00 in0.0 mm 0.00 in0.0 mm
03:07 AM 54.3°F12.4°C 43.2°F6.2°C 66% 6.3 mph WSW10.1 kmh WSW 12.8 mph20.6 kmh 30.37 in1028.4 mb - 0.00 in0.0 mm 0.00 in0.0 mm
03:12 AM 54.3°F12.4°C 42.8°F6.0°C 65% 5.8 mph W9.3 kmh W 10.5 mph16.9 kmh 30.37 in1028.4 mb - 0.00 in0.0 mm 0.00 in0.0 mm
03:17 AM 54.3°F12.4°C 42.8°F6.0°C 65% 6.7 mph WNW10.8 kmh WNW 13.0 mph20.9 kmh 30.37 in1028.4 mb - 0.00 in0.0 mm 0.00 in0.0 mm
03:22 AM 54.3°F12.4°C 43.2°F6.2°C 66% 6.5 mph WNW10.5 kmh WNW 6.5 mph10.5 kmh 30.34 in1027.4 mb - 0.00 in0.0 mm 0.00 in0.0 mm
03:27 AM 54.3°F12.4°C 43.2°F6.2°C 66% 6.3 mph WNW10.1 kmh WNW 15.4 mph24.8 kmh 30.34 in1027.4 mb - 0.00 in0.0 mm 0.00 in0.0 mm
03:32 AM 54.3°F12.4°C 42.8°F6.0°C 65% 7.4 mph WNW11.9 kmh WNW 11.2 mph18.0 kmh 30.34 in1027.4 mb - 0.00 in0.0 mm 0.00 in0.0 mm
03:37 AM 54.3°F12.4°C 42.8°F6.0°C 65% 5.8 mph WNW9.3 kmh WNW 11.4 mph18.3 kmh 30.34 in1027.4 mb - 0.00 in0.0 mm 0.00 in0.0 mm
03:42 AM 54.3°F12.4°C 43.2°F6.2°C 66% 5.6 mph WSW9.0 kmh WSW 11.6 mph18.7 kmh 30.34 in1027.4 mb - 0.00 in0.0 mm 0.00 in0.0 mm
03:47 AM 54.3°F12.4°C 43.2°F6.2°C 66% 4.9 mph WNW7.9 kmh WNW 10.1 mph16.3 kmh 30.34 in1027.4 mb - 0.00 in0.0 mm 0.00 in0.0 mm
03:52 AM 54.3°F12.4°C 43.2°F6.2°C 66% 5.1 mph W8.2 kmh W 9.2 mph14.8 kmh 30.31 in1026.4 mb - 0.00 in0.0 mm 0.00 in0.0 mm
03:57 AM 54.3°F12.4°C 43.2°F6.2°C 66% 4.3 mph WSW6.9 kmh WSW 8.5 mph13.7 kmh 30.31 in1026.4 mb - 0.00 in0.0 mm 0.00 in0.0 mm
04:02 AM 54.5°F12.5°C 43.0°F6.1°C 65% 3.1 mph SW5.0 kmh SW 8.3 mph13.4 kmh 30.31 in1026.4 mb - 0.00 in0.0 mm 0.00 in0.0 mm
04:07 AM 54.5°F12.5°C 43.0°F6.1°C 65% 4.0 mph WSW6.4 kmh WSW 8.7 mph14.0 kmh 30.31 in1026.4 mb - 0.00 in0.0 mm 0.00 in0.0 mm
04:12 AM 54.5°F12.5°C 43.0°F6.1°C 65% 3.4 mph WSW5.5 kmh WSW 9.4 mph15.1 kmh 30.31 in1026.4 mb - 0.00 in0.0 mm 0.00 in0.0 mm
04:17 AM 54.3°F12.4°C 42.8°F6.0°C 65% 4.7 mph W7.6 kmh W 4.7 mph7.6 kmh 30.31 in1026.4 mb - 0.00 in0.0 mm 0.00 in0.0 mm
04:22 AM 54.1°F12.3°C 42.6°F5.9°C 65% 2.9 mph NNE4.7 kmh NNE 6.3 mph10.1 kmh 30.34 in1027.4 mb - 0.00 in0.0 mm 0.00 in0.0 mm
04:27 AM 54.1°F12.3°C 43.0°F6.1°C 66% 2.9 mph N4.7 kmh N 5.8 mph9.3 kmh 30.34 in1027.4 mb - 0.00 in0.0 mm 0.00 in0.0 mm
04:32 AM 54.0°F12.2°C 42.8°F6.0°C 66% 4.0 mph NE6.4 kmh NE 9.2 mph14.8 kmh 30.34 in1027.4 mb - 0.00 in0.0 mm 0.00 in0.0 mm
04:37 AM 53.8°F12.1°C 42.6°F5.9°C 66% 2.0 mph NE3.2 kmh NE 5.1 mph8.2 kmh 30.34 in1027.4 mb - 0.00 in0.0 mm 0.00 in0.0 mm
04:42 AM 53.8°F12.1°C 42.6°F5.9°C 66% 2.7 mph NNW4.3 kmh NNW 7.4 mph11.9 kmh 30.34 in1027.4 mb - 0.00 in0.0 mm 0.00 in0.0 mm
04:47 AM 53.6°F12.0°C 43.0°F6.1°C 67% 0.9 mph NW1.4 kmh NW 5.4 mph8.7 kmh 30.34 in1027.4 mb - 0.00 in0.0 mm 0.00 in0.0 mm
04:52 AM 53.6°F12.0°C 43.0°F6.1°C 67% Calm Calm -- 30.34 in1027.4 mb - 0.00 in0.0 mm 0.00 in0.0 mm
04:57 AM 53.6°F12.0°C 43.0°F6.1°C 67% 0.9 mph W1.4 kmh W 4.0 mph6.4 kmh 30.34 in1027.4 mb - 0.00 in0.0 mm 0.00 in0.0 mm
05:02 AM 53.6°F12.0°C 43.3°F6.3°C 68% 1.8 mph NW2.9 kmh NW 8.9 mph14.3 kmh 30.34 in1027.4 mb - 0.00 in0.0 mm 0.00 in0.0 mm
05:07 AM 53.6°F12.0°C 43.3°F6.3°C 68% 2.0 mph WNW3.2 kmh WNW 8.5 mph13.7 kmh 30.34 in1027.4 mb - 0.00 in0.0 mm 0.00 in0.0 mm
05:12 AM 53.6°F12.0°C 43.3°F6.3°C 68% 3.8 mph WNW6.1 kmh WNW 8.7 mph14.0 kmh 30.34 in1027.4 mb - 0.00 in0.0 mm 0.00 in0.0 mm
05:17 AM 53.4°F11.9°C 43.2°F6.2°C 68% 3.8 mph WNW6.1 kmh WNW 7.4 mph11.9 kmh 30.34 in1027.4 mb - 0.00 in0.0 mm 0.00 in0.0 mm
05:22 AM 53.4°F11.9°C 43.2°F6.2°C 68% 3.4 mph NW5.5 kmh NW 8.3 mph13.4 kmh 30.34 in1027.4 mb - 0.00 in0.0 mm 0.00 in0.0 mm
05:27 AM 53.2°F11.8°C 43.0°F6.1°C 68% 0.7 mph WSW1.1 kmh WSW 4.5 mph7.2 kmh 30.34 in1027.4 mb - 0.00 in0.0 mm 0.00 in0.0 mm
05:32 AM 53.2°F11.8°C 43.0°F6.1°C 68% 1.1 mph WSW1.8 kmh WSW 8.1 mph13.0 kmh 30.34 in1027.4 mb - 0.00 in0.0 mm 0.00 in0.0 mm
05:37 AM 53.2°F11.8°C 43.0°F6.1°C 68% 2.2 mph WSW3.5 kmh WSW 7.8 mph12.6 kmh 30.34 in1027.4 mb - 0.00 in0.0 mm 0.00 in0.0 mm
05:42 AM 53.2°F11.8°C 43.0°F6.1°C 68% 3.8 mph W6.1 kmh W 6.9 mph11.1 kmh 30.34 in1027.4 mb - 0.00 in0.0 mm 0.00 in0.0 mm
05:47 AM 53.1°F11.7°C 42.8°F6.0°C 68% 3.4 mph WSW5.5 kmh WSW 7.2 mph11.6 kmh 30.34 in1027.4 mb - 0.00 in0.0 mm 0.00 in0.0 mm
05:52 AM 52.5°F11.4°C 41.9°F5.5°C 67% 3.1 mph WNW5.0 kmh WNW 6.0 mph9.7 kmh 30.34 in1027.4 mb - 0.00 in0.0 mm 0.00 in0.0 mm
05:57 AM 52.0°F11.1°C 41.7°F5.4°C 68% 3.4 mph W5.5 kmh W 5.4 mph8.7 kmh 30.34 in1027.4 mb - 0.00 in0.0 mm 0.00 in0.0 mm
06:02 AM 51.4°F10.8°C 41.2°F5.1°C 68% 2.7 mph N4.3 kmh N 3.8 mph6.1 kmh 30.34 in1027.4 mb - 0.00 in0.0 mm 0.00 in0.0 mm
06:07 AM 51.3°F10.7°C 41.5°F5.3°C 69% 2.5 mph NNE4.0 kmh NNE 3.6 mph5.8 kmh 30.34 in1027.4 mb - 0.00 in0.0 mm 0.00 in0.0 mm
06:12 AM 51.3°F10.7°C 41.5°F5.3°C 69% 2.0 mph N3.2 kmh N 3.4 mph5.5 kmh 30.34 in1027.4 mb - 0.00 in0.0 mm 0.00 in0.0 mm
06:17 AM 51.1°F10.6°C 41.7°F5.4°C 70% 0.7 mph NNW1.1 kmh NNW 2.7 mph4.3 kmh 30.34 in1027.4 mb - 0.00 in0.0 mm 0.00 in0.0 mm
06:22 AM 50.7°F10.4°C 41.4°F5.2°C 70% Calm Calm -- 30.31 in1026.4 mb - 0.00 in0.0 mm 0.00 in0.0 mm
06:27 AM 50.5°F10.3°C 41.2°F5.1°C 70% Calm Calm -- 30.31 in1026.4 mb - 0.00 in0.0 mm 0.00 in0.0 mm
06:32 AM 50.2°F10.1°C 40.8°F4.9°C 70% Calm Calm -- 30.31 in1026.4 mb - 0.00 in0.0 mm 0.00 in0.0 mm
06:37 AM 49.8°F9.9°C 40.5°F4.7°C 70% Calm Calm -- 30.31 in1026.4 mb - 0.00 in0.0 mm 0.00 in0.0 mm
06:42 AM 49.6°F9.8°C 40.6°F4.8°C 71% Calm Calm -- 30.31 in1026.4 mb - 0.00 in0.0 mm 0.00 in0.0 mm
06:47 AM 49.5°F9.7°C 40.8°F4.9°C 72% Calm Calm -- 30.31 in1026.4 mb - 0.00 in0.0 mm 0.00 in0.0 mm
06:52 AM 49.3°F9.6°C 41.4°F5.2°C 74% 0.2 mph WSW0.3 kmh WSW 2.0 mph3.2 kmh 30.31 in1026.4 mb - 0.00 in0.0 mm 0.00 in0.0 mm
06:57 AM 49.1°F9.5°C 41.2°F5.1°C 74% 0.7 mph NNW1.1 kmh NNW 3.6 mph5.8 kmh 30.31 in1026.4 mb - 0.00 in0.0 mm 0.00 in0.0 mm
07:02 AM 48.9°F9.4°C 41.0°F5.0°C 74% 3.1 mph SE5.0 kmh SE 6.5 mph10.5 kmh 30.31 in1026.4 mb - 0.00 in0.0 mm 0.00 in0.0 mm
07:07 AM 48.7°F9.3°C 40.8°F4.9°C 74% Calm Calm 0.7 mph1.1 kmh 30.31 in1026.4 mb - 0.00 in0.0 mm 0.00 in0.0 mm
07:12 AM 48.6°F9.2°C 41.0°F5.0°C 75% Calm Calm -- 30.31 in1026.4 mb - 0.00 in0.0 mm 0.00 in0.0 mm
07:17 AM 48.4°F9.1°C 40.8°F4.9°C 75% 1.8 mph S2.9 kmh S 4.9 mph7.9 kmh 30.31 in1026.4 mb - 0.00 in0.0 mm 0.00 in0.0 mm
07:22 AM 48.2°F9.0°C 40.6°F4.8°C 75% 3.1 mph S5.0 kmh S 5.1 mph8.2 kmh 30.34 in1027.4 mb - 0.00 in0.0 mm 0.00 in0.0 mm
07:27 AM 48.0°F8.9°C 40.5°F4.7°C 75% 2.5 mph S4.0 kmh S 3.6 mph5.8 kmh 30.34 in1027.4 mb - 0.00 in0.0 mm 0.00 in0.0 mm
07:32 AM 48.0°F8.9°C 40.5°F4.7°C 75% 0.7 mph SW1.1 kmh SW 3.8 mph6.1 kmh 30.34 in1027.4 mb - 0.00 in0.0 mm 0.00 in0.0 mm
07:37 AM 48.0°F8.9°C 40.8°F4.9°C 76% 0.7 mph SW1.1 kmh SW 2.2 mph3.5 kmh 30.34 in1027.4 mb - 0.00 in0.0 mm 0.00 in0.0 mm
07:42 AM 48.0°F8.9°C 40.8°F4.9°C 76% 1.6 mph S2.6 kmh S 3.1 mph5.0 kmh 30.34 in1027.4 mb - 0.00 in0.0 mm 0.00 in0.0 mm
07:47 AM 48.0°F8.9°C 40.8°F4.9°C 76% 1.3 mph S2.1 kmh S 2.7 mph4.3 kmh 30.34 in1027.4 mb - 0.00 in0.0 mm 0.00 in0.0 mm
07:52 AM 48.4°F9.1°C 41.5°F5.3°C 77% Calm Calm -- 30.34 in1027.4 mb - 0.00 in0.0 mm 0.00 in0.0 mm
07:57 AM 48.4°F9.1°C 41.5°F5.3°C 77% Calm Calm -- 30.34 in1027.4 mb - 0.00 in0.0 mm 0.00 in0.0 mm
08:02 AM 48.4°F9.1°C 41.5°F5.3°C 77% 0.7 mph SSE1.1 kmh SSE 2.7 mph4.3 kmh 30.34 in1027.4 mb - 0.00 in0.0 mm 0.00 in0.0 mm
08:07 AM 48.4°F9.1°C 41.2°F5.1°C 76% Calm Calm -- 30.34 in1027.4 mb - 0.00 in0.0 mm 0.00 in0.0 mm
08:12 AM 48.4°F9.1°C 41.2°F5.1°C 76% Calm Calm -- 30.34 in1027.4 mb - 0.00 in0.0 mm 0.00 in0.0 mm
08:17 AM 48.4°F9.1°C 41.2°F5.1°C 76% Calm Calm -- 30.34 in1027.4 mb - 0.00 in0.0 mm 0.00 in0.0 mm
08:22 AM 48.4°F9.1°C 41.5°F5.3°C 77% Calm Calm -- 30.34 in1027.4 mb - 0.00 in0.0 mm 0.00 in0.0 mm
08:27 AM 48.6°F9.2°C 41.7°F5.4°C 77% Calm Calm -- 30.34 in1027.4 mb - 0.00 in0.0 mm 0.00 in0.0 mm
08:32 AM 48.7°F9.3°C 41.9°F5.5°C 77% Calm Calm -- 30.34 in1027.4 mb - 0.00 in0.0 mm 0.00 in0.0 mm
08:37 AM 48.9°F9.4°C 42.1°F5.6°C 77% Calm Calm -- 30.34 in1027.4 mb - 0.00 in0.0 mm 0.00 in0.0 mm
08:42 AM 49.3°F9.6°C 42.4°F5.8°C 77% Calm Calm -- 30.34 in1027.4 mb - 0.00 in0.0 mm 0.00 in0.0 mm
08:47 AM 50.4°F10.2°C 43.7°F6.5°C 78% Calm Calm -- 30.34 in1027.4 mb - 0.00 in0.0 mm 0.00 in0.0 mm
08:52 AM 51.1°F10.6°C 44.8°F7.1°C 79% Calm Calm -- 30.31 in1026.4 mb - 0.00 in0.0 mm 0.00 in0.0 mm
08:57 AM 52.2°F11.2°C 45.9°F7.7°C 79% 1.3 mph S2.1 kmh S 4.0 mph6.4 kmh 30.31 in1026.4 mb - 0.00 in0.0 mm 0.00 in0.0 mm
09:02 AM 53.2°F11.8°C 46.6°F8.1°C 78% 2.0 mph SW3.2 kmh SW 5.4 mph8.7 kmh 30.31 in1026.4 mb - 0.00 in0.0 mm 0.00 in0.0 mm
09:07 AM 54.1°F12.3°C 47.1°F8.4°C 77% 1.1 mph SW1.8 kmh SW 6.0 mph9.7 kmh 30.31 in1026.4 mb - 0.00 in0.0 mm 0.00 in0.0 mm
09:12 AM 55.0°F12.8°C 47.7°F8.7°C 76% 0.2 mph NW0.3 kmh NW 3.1 mph5.0 kmh 30.31 in1026.4 mb - 0.00 in0.0 mm 0.00 in0.0 mm
09:17 AM 55.9°F13.3°C 47.5°F8.6°C 73% 0.7 mph SW1.1 kmh SW 4.0 mph6.4 kmh 30.31 in1026.4 mb - 0.00 in0.0 mm 0.00 in0.0 mm
09:22 AM 56.3°F13.5°C 47.1°F8.4°C 71% 0.2 mph SE0.3 kmh SE 2.9 mph4.7 kmh 30.34 in1027.4 mb - 0.00 in0.0 mm 0.00 in0.0 mm
09:27 AM 56.5°F13.6°C 46.8°F8.2°C 70% 0.4 mph SSW0.6 kmh SSW 3.1 mph5.0 kmh 30.34 in1027.4 mb - 0.00 in0.0 mm 0.00 in0.0 mm
09:32 AM 57.2°F14.0°C 47.5°F8.6°C 70% 5.1 mph W8.2 kmh W 12.3 mph19.8 kmh 30.34 in1027.4 mb - 0.00 in0.0 mm 0.00 in0.0 mm